PHD weather

Harry Clever Field
New Philadelphia, Ohio, United States

Public forecast

Using degrees Fahrenheit for public forecast. Weather courtesy of forecast.io.

Current aviation weather report (METAR) for Harry Clever Field

Retrieved 2019/10/24 02:53 UTC (48 minutes ago):

KPHD 240253Z AUTO 14004KT 10SM CLR 10/01 A3017 RMK AO2 SLP218 T01000006 51013

Closest aviation forecast (TAF) to Harry Clever Field

Closest forecast is Akron Canton Regional Airport, 26.7 nm (49.5 km) N. Retrieved 2019-10-24 00:34 UTC (3 hours ago):

TAF KCAK 232332Z 2400/2424 20009KT P6SM FEW250 FM240600 20011KT P6SM SCT200 WS020/23040KT FM241300 21010KT P6SM BKN150 FM241900 25007KT P6SM BKN100